sensor_id;sensor_type;location;lat;lon;timestamp;P1;durP1;ratioP1;P2;durP2;ratioP2
30309;SDS011;17115;50.836;12.078;2023-03-01T01:01:24;0.88;;;0.88;;
30309;SDS011;17115;50.836;12.078;2023-03-01T01:04:12;0.47;;;0.47;;
30309;SDS011;17115;50.836;12.078;2023-03-01T01:06:57;0.73;;;0.73;;
30309;SDS011;17115;50.836;12.078;2023-03-01T01:09:41;0.40;;;0.40;;
30309;SDS011;17115;50.836;12.078;2023-03-01T01:12:27;0.65;;;0.65;;
30309;SDS011;17115;50.836;12.078;2023-03-01T01:15:12;3.38;;;1.58;;
30309;SDS011;17115;50.836;12.078;2023-03-01T01:18:00;0.50;;;0.50;;
30309;SDS011;17115;50.836;12.078;2023-03-01T01:20:44;1.30;;;1.23;;
30309;SDS011;17115;50.836;12.078;2023-03-01T01:23:29;9.70;;;3.70;;
30309;SDS011;17115;50.836;12.078;2023-03-01T01:26:15;0.95;;;0.95;;
30309;SDS011;17115;50.836;12.078;2023-03-01T01:29:00;0.20;;;0.20;;
30309;SDS011;17115;50.836;12.078;2023-03-01T01:31:45;0.43;;;0.43;;
30309;SDS011;17115;50.836;12.078;2023-03-01T01:34:29;2.47;;;2.10;;
30309;SDS011;17115;50.836;12.078;2023-03-01T01:37:14;0.82;;;0.82;;
30309;SDS011;17115;50.836;12.078;2023-03-01T01:39:59;1.17;;;1.13;;
30309;SDS011;17115;50.836;12.078;2023-03-01T01:42:44;0.52;;;0.52;;
30309;SDS011;17115;50.836;12.078;2023-03-01T01:45:35;1.05;;;0.95;;
30309;SDS011;17115;50.836;12.078;2023-03-01T01:48:21;2.00;;;1.83;;
30309;SDS011;17115;50.836;12.078;2023-03-01T01:51:07;0.52;;;0.52;;
30309;SDS011;17115;50.836;12.078;2023-03-01T01:53:53;0.10;;;0.10;;
30309;SDS011;17115;50.836;12.078;2023-03-01T01:56:40;0.55;;;0.55;;
30309;SDS011;17115;50.836;12.078;2023-03-01T01:59:27;0.20;;;0.20;;
30309;SDS011;17115;50.836;12.078;2023-03-01T02:02:12;1.48;;;1.13;;
30309;SDS011;17115;50.836;12.078;2023-03-01T02:05:03;0.20;;;0.20;;
30309;SDS011;17115;50.836;12.078;2023-03-01T02:07:54;0.50;;;0.50;;
30309;SDS011;17115;50.836;12.078;2023-03-01T02:10:40;0.20;;;0.20;;
30309;SDS011;17115;50.836;12.078;2023-03-01T02:13:25;1.10;;;1.10;;
30309;SDS011;17115;50.836;12.078;2023-03-01T02:16:11;1.00;;;0.95;;
30309;SDS011;17115;50.836;12.078;2023-03-01T02:18:57;0.20;;;0.20;;
30309;SDS011;17115;50.836;12.078;2023-03-01T02:21:52;6.57;;;5.93;;
30309;SDS011;17115;50.836;12.078;2023-03-01T02:30:37;1.63;;;1.05;;
30309;SDS011;17115;50.836;12.078;2023-03-01T02:33:41;0.30;;;0.30;;
30309;SDS011;17115;50.836;12.078;2023-03-01T02:36:29;0.38;;;0.38;;
30309;SDS011;17115;50.836;12.078;2023-03-01T02:39:15;0.28;;;0.28;;
30309;SDS011;17115;50.836;12.078;2023-03-01T02:42:00;1.52;;;1.45;;
30309;SDS011;17115;50.836;12.078;2023-03-01T02:44:46;0.73;;;0.73;;
30309;SDS011;17115;50.836;12.078;2023-03-01T02:47:32;1.63;;;1.50;;
30309;SDS011;17115;50.836;12.078;2023-03-01T02:53:08;1.48;;;1.40;;
30309;SDS011;17115;50.836;12.078;2023-03-01T02:55:55;0.50;;;0.50;;
30309;SDS011;17115;50.836;12.078;2023-03-01T02:58:40;1.33;;;1.33;;
30309;SDS011;17115;50.836;12.078;2023-03-01T03:01:30;0.40;;;0.40;;
30309;SDS011;17115;50.836;12.078;2023-03-01T03:04:20;0.25;;;0.25;;
30309;SDS011;17115;50.836;12.078;2023-03-01T03:07:05;1.33;;;1.23;;
30309;SDS011;17115;50.836;12.078;2023-03-01T03:09:50;0.50;;;0.50;;
30309;SDS011;17115;50.836;12.078;2023-03-01T03:12:35;1.00;;;1.00;;
30309;SDS011;17115;50.836;12.078;2023-03-01T03:15:19;1.10;;;0.95;;
30309;SDS011;17115;50.836;12.078;2023-03-01T03:18:05;1.25;;;1.20;;
30309;SDS011;17115;50.836;12.078;2023-03-01T03:20:50;8.70;;;1.85;;
30309;SDS011;17115;50.836;12.078;2023-03-01T03:23:37;1.17;;;0.75;;
30309;SDS011;17115;50.836;12.078;2023-03-01T03:26:21;0.95;;;0.95;;
30309;SDS011;17115;50.836;12.078;2023-03-01T03:29:06;2.00;;;1.90;;
30309;SDS011;17115;50.836;12.078;2023-03-01T03:31:50;0.77;;;0.77;;
30309;SDS011;17115;50.836;12.078;2023-03-01T03:34:35;0.55;;;0.55;;
30309;SDS011;17115;50.836;12.078;2023-03-01T03:37:19;2.30;;;1.40;;
30309;SDS011;17115;50.836;12.078;2023-03-01T03:40:23;0.68;;;0.68;;
30309;SDS011;17115;50.836;12.078;2023-03-01T03:43:09;0.20;;;0.20;;
30309;SDS011;17115;50.836;12.078;2023-03-01T03:45:54;0.47;;;0.47;;
30309;SDS011;17115;50.836;12.078;2023-03-01T03:48:40;7.22;;;3.45;;
30309;SDS011;17115;50.836;12.078;2023-03-01T03:51:24;2.47;;;2.30;;
30309;SDS011;17115;50.836;12.078;2023-03-01T03:54:08;1.05;;;1.02;;
30309;SDS011;17115;50.836;12.078;2023-03-01T03:56:53;1.80;;;1.70;;
30309;SDS011;17115;50.836;12.078;2023-03-01T03:59:37;2.53;;;2.33;;
30309;SDS011;17115;50.836;12.078;2023-03-01T06:04:49;4.90;;;2.83;;
30309;SDS011;17115;50.836;12.078;2023-03-01T06:07:35;0.43;;;0.43;;
30309;SDS011;17115;50.836;12.078;2023-03-01T08:09:30;6.57;;;3.72;;
30309;SDS011;17115;50.836;12.078;2023-03-01T08:12:14;2.92;;;2.13;;
30309;SDS011;17115;50.836;12.078;2023-03-01T08:15:01;2.00;;;1.27;;
30309;SDS011;17115;50.836;12.078;2023-03-01T08:17:48;2.70;;;2.53;;
30309;SDS011;17115;50.836;12.078;2023-03-01T08:20:32;16.85;;;9.02;;
30309;SDS011;17115;50.836;12.078;2023-03-01T08:23:17;2.30;;;2.15;;
30309;SDS011;17115;50.836;12.078;2023-03-01T08:26:05;12.10;;;6.55;;
30309;SDS011;17115;50.836;12.078;2023-03-01T08:28:50;8.88;;;3.08;;
30309;SDS011;17115;50.836;12.078;2023-03-01T08:31:36;0.65;;;0.65;;
30309;SDS011;17115;50.836;12.078;2023-03-01T08:34:21;1.80;;;1.65;;
30309;SDS011;17115;50.836;12.078;2023-03-01T08:37:06;1.70;;;1.60;;
30309;SDS011;17115;50.836;12.078;2023-03-01T08:39:50;1.10;;;1.10;;
30309;SDS011;17115;50.836;12.078;2023-03-01T08:42:36;2.17;;;2.03;;
30309;SDS011;17115;50.836;12.078;2023-03-01T08:45:21;2.88;;;2.42;;
30309;SDS011;17115;50.836;12.078;2023-03-01T08:48:05;6.50;;;2.22;;
30309;SDS011;17115;50.836;12.078;2023-03-01T08:50:50;5.38;;;2.42;;
30309;SDS011;17115;50.836;12.078;2023-03-01T08:53:35;7.60;;;4.18;;
30309;SDS011;17115;50.836;12.078;2023-03-01T08:56:19;5.75;;;5.03;;
30309;SDS011;17115;50.836;12.078;2023-03-01T08:59:04;5.93;;;3.55;;
30309;SDS011;17115;50.836;12.078;2023-03-01T09:01:52;10.63;;;9.70;;
30309;SDS011;17115;50.836;12.078;2023-03-01T09:04:37;6.97;;;6.43;;
30309;SDS011;17115;50.836;12.078;2023-03-01T09:07:22;15.48;;;13.88;;
30309;SDS011;17115;50.836;12.078;2023-03-01T10:11:32;14.73;;;13.23;;
30309;SDS011;17115;50.836;12.078;2023-03-01T10:20:18;12.38;;;11.18;;
30309;SDS011;17115;50.836;12.078;2023-03-01T10:23:04;10.25;;;9.30;;
30309;SDS011;17115;50.836;12.078;2023-03-01T10:26:05;7.50;;;7.00;;
30309;SDS011;17115;50.836;12.078;2023-03-01T10:31:49;7.85;;;7.30;;
30309;SDS011;17115;50.836;12.078;2023-03-01T10:34:35;14.23;;;7.15;;
30309;SDS011;17115;50.836;12.078;2023-03-01T10:37:20;6.28;;;5.82;;
30309;SDS011;17115;50.836;12.078;2023-03-01T10:40:10;9.23;;;8.43;;
30309;SDS011;17115;50.836;12.078;2023-03-01T10:42:57;9.50;;;8.68;;
30309;SDS011;17115;50.836;12.078;2023-03-01T10:45:42;7.18;;;6.75;;
30309;SDS011;17115;50.836;12.078;2023-03-01T10:48:27;7.40;;;6.57;;
30309;SDS011;17115;50.836;12.078;2023-03-01T10:51:16;8.38;;;7.65;;
30309;SDS011;17115;50.836;12.078;2023-03-01T10:54:02;6.82;;;5.50;;
30309;SDS011;17115;50.836;12.078;2023-03-01T10:56:49;12.07;;;10.88;;
30309;SDS011;17115;50.836;12.078;2023-03-01T10:59:36;7.60;;;6.82;;
30309;SDS011;17115;50.836;12.078;2023-03-01T11:02:26;8.40;;;7.88;;
30309;SDS011;17115;50.836;12.078;2023-03-01T11:07:57;6.05;;;5.75;;
30309;SDS011;17115;50.836;12.078;2023-03-01T13:10:20;10.73;;;9.75;;
30309;SDS011;17115;50.836;12.078;2023-03-01T13:19:27;13.70;;;12.50;;
30309;SDS011;17115;50.836;12.078;2023-03-01T13:22:32;19.13;;;17.50;;
30309;SDS011;17115;50.836;12.078;2023-03-01T13:25:17;20.02;;;18.30;;
30309;SDS011;17115;50.836;12.078;2023-03-01T13:31:11;18.65;;;15.25;;
30309;SDS011;17115;50.836;12.078;2023-03-01T13:37:25;6.70;;;6.22;;
30309;SDS011;17115;50.836;12.078;2023-03-01T13:46:20;14.23;;;13.15;;
30309;SDS011;17115;50.836;12.078;2023-03-01T13:49:09;15.35;;;13.98;;
30309;SDS011;17115;50.836;12.078;2023-03-01T13:51:55;20.45;;;18.98;;
30309;SDS011;17115;50.836;12.078;2023-03-01T13:54:41;16.35;;;12.57;;
30309;SDS011;17115;50.836;12.078;2023-03-01T13:57:27;14.43;;;13.38;;
30309;SDS011;17115;50.836;12.078;2023-03-01T14:03:12;21.48;;;16.45;;
30309;SDS011;17115;50.836;12.078;2023-03-01T14:05:58;19.30;;;17.52;;
30309;SDS011;17115;50.836;12.078;2023-03-01T14:08:44;19.33;;;17.38;;
30309;SDS011;17115;50.836;12.078;2023-03-01T15:12:44;18.92;;;17.88;;
30309;SDS011;17115;50.836;12.078;2023-03-01T15:18:21;14.85;;;12.93;;
30309;SDS011;17115;50.836;12.078;2023-03-01T15:21:08;12.45;;;11.32;;
30309;SDS011;17115;50.836;12.078;2023-03-01T15:23:58;22.10;;;17.33;;
30309;SDS011;17115;50.836;12.078;2023-03-01T15:26:49;17.83;;;14.40;;
30309;SDS011;17115;50.836;12.078;2023-03-01T15:29:35;11.43;;;8.70;;
30309;SDS011;17115;50.836;12.078;2023-03-01T15:41:37;22.63;;;20.55;;
30309;SDS011;17115;50.836;12.078;2023-03-01T15:44:30;11.85;;;8.93;;
30309;SDS011;17115;50.836;12.078;2023-03-01T15:50:17;12.95;;;9.23;;
30309;SDS011;17115;50.836;12.078;2023-03-01T15:53:06;11.80;;;9.25;;
30309;SDS011;17115;50.836;12.078;2023-03-01T15:55:52;7.07;;;6.78;;
30309;SDS011;17115;50.836;12.078;2023-03-01T15:58:37;13.85;;;12.98;;
30309;SDS011;17115;50.836;12.078;2023-03-01T16:01:35;6.90;;;6.50;;
30309;SDS011;17115;50.836;12.078;2023-03-01T16:04:20;5.38;;;4.85;;
30309;SDS011;17115;50.836;12.078;2023-03-01T16:07:05;13.15;;;10.90;;
30309;SDS011;17115;50.836;12.078;2023-03-01T16:09:49;10.40;;;8.70;;
30309;SDS011;17115;50.836;12.078;2023-03-01T16:12:34;8.70;;;8.10;;
30309;SDS011;17115;50.836;12.078;2023-03-01T16:15:26;6.63;;;6.10;;
30309;SDS011;17115;50.836;12.078;2023-03-01T16:18:11;7.93;;;7.10;;
30309;SDS011;17115;50.836;12.078;2023-03-01T16:20:56;7.03;;;6.63;;
30309;SDS011;17115;50.836;12.078;2023-03-01T16:23:42;6.20;;;5.78;;
30309;SDS011;17115;50.836;12.078;2023-03-01T16:26:27;9.70;;;7.78;;
30309;SDS011;17115;50.836;12.078;2023-03-01T16:29:11;4.85;;;4.65;;
30309;SDS011;17115;50.836;12.078;2023-03-01T16:31:55;3.78;;;3.53;;
30309;SDS011;17115;50.836;12.078;2023-03-01T16:34:40;4.80;;;4.60;;
30309;SDS011;17115;50.836;12.078;2023-03-01T16:37:25;5.38;;;5.07;;
30309;SDS011;17115;50.836;12.078;2023-03-01T16:43:03;6.47;;;5.93;;
30309;SDS011;17115;50.836;12.078;2023-03-01T16:45:47;4.50;;;4.30;;
30309;SDS011;17115;50.836;12.078;2023-03-01T16:48:32;4.20;;;4.00;;
30309;SDS011;17115;50.836;12.078;2023-03-01T16:51:17;3.40;;;3.28;;
30309;SDS011;17115;50.836;12.078;2023-03-01T16:54:02;7.20;;;6.85;;
30309;SDS011;17115;50.836;12.078;2023-03-01T16:56:49;4.80;;;4.60;;
30309;SDS011;17115;50.836;12.078;2023-03-01T16:59:33;10.63;;;10.00;;
30309;SDS011;17115;50.836;12.078;2023-03-01T17:02:17;15.95;;;15.13;;
30309;SDS011;17115;50.836;12.078;2023-03-01T17:05:04;6.50;;;6.15;;
30309;SDS011;17115;50.836;12.078;2023-03-01T17:07:50;5.97;;;5.68;;
30309;SDS011;17115;50.836;12.078;2023-03-01T17:10:35;14.40;;;13.52;;
30309;SDS011;17115;50.836;12.078;2023-03-01T17:50:27;17.40;;;16.45;;
30309;SDS011;17115;50.836;12.078;2023-03-01T18:14:37;14.27;;;13.52;;
30309;SDS011;17115;50.836;12.078;2023-03-01T18:17:22;14.13;;;13.38;;
30309;SDS011;17115;50.836;12.078;2023-03-01T18:20:08;21.27;;;20.00;;
30309;SDS011;17115;50.836;12.078;2023-03-01T18:22:52;17.10;;;15.77;;
30309;SDS011;17115;50.836;12.078;2023-03-01T18:25:40;12.35;;;11.43;;
30309;SDS011;17115;50.836;12.078;2023-03-01T18:28:24;24.27;;;22.65;;
30309;SDS011;17115;50.836;12.078;2023-03-01T18:31:09;11.32;;;10.60;;
30309;SDS011;17115;50.836;12.078;2023-03-01T18:33:54;15.18;;;14.32;;
30309;SDS011;17115;50.836;12.078;2023-03-01T18:36:39;21.40;;;20.20;;
30309;SDS011;17115;50.836;12.078;2023-03-01T18:39:23;19.38;;;18.23;;
30309;SDS011;17115;50.836;12.078;2023-03-01T18:42:08;14.13;;;13.38;;
30309;SDS011;17115;50.836;12.078;2023-03-01T18:44:53;17.67;;;16.58;;
30309;SDS011;17115;50.836;12.078;2023-03-01T18:47:37;8.93;;;8.40;;
30309;SDS011;17115;50.836;12.078;2023-03-01T18:50:23;8.93;;;8.45;;
30309;SDS011;17115;50.836;12.078;2023-03-01T18:53:08;9.13;;;8.52;;
30309;SDS011;17115;50.836;12.078;2023-03-01T18:55:57;17.30;;;16.33;;
30309;SDS011;17115;50.836;12.078;2023-03-01T18:58:42;11.60;;;11.00;;
30309;SDS011;17115;50.836;12.078;2023-03-01T19:01:28;10.27;;;9.73;;
30309;SDS011;17115;50.836;12.078;2023-03-01T19:04:12;7.07;;;6.68;;
30309;SDS011;17115;50.836;12.078;2023-03-01T19:06:57;8.95;;;8.48;;
30309;SDS011;17115;50.836;12.078;2023-03-01T19:09:45;9.20;;;8.73;;
30309;SDS011;17115;50.836;12.078;2023-03-01T20:53:34;11.60;;;10.87;;
30309;SDS011;17115;50.836;12.078;2023-03-01T21:36:16;23.97;;;21.93;;
30309;SDS011;17115;50.836;12.078;2023-03-01T22:15:45;41.67;;;39.00;;
30309;SDS011;17115;50.836;12.078;2023-03-01T22:18:29;31.93;;;29.30;;
30309;SDS011;17115;50.836;12.078;2023-03-01T22:21:14;27.43;;;25.43;;
30309;SDS011;17115;50.836;12.078;2023-03-01T22:23:58;47.70;;;44.50;;
30309;SDS011;17115;50.836;12.078;2023-03-01T22:26:43;26.20;;;24.07;;
30309;SDS011;17115;50.836;12.078;2023-03-01T22:29:30;0.77;;;0.77;;
30309;SDS011;17115;50.836;12.078;2023-03-01T22:32:14;7.78;;;3.58;;
30309;SDS011;17115;50.836;12.078;2023-03-01T22:34:59;2.95;;;2.58;;
30309;SDS011;17115;50.836;12.078;2023-03-01T22:37:43;3.30;;;1.55;;
30309;SDS011;17115;50.836;12.078;2023-03-01T22:40:27;10.50;;;4.82;;
30309;SDS011;17115;50.836;12.078;2023-03-01T22:43:12;4.38;;;3.55;;
30309;SDS011;17115;50.836;12.078;2023-03-01T22:45:56;6.15;;;3.33;;
30309;SDS011;17115;50.836;12.078;2023-03-01T22:48:42;6.18;;;2.95;;
30309;SDS011;17115;50.836;12.078;2023-03-01T22:51:28;4.07;;;3.22;;
30309;SDS011;17115;50.836;12.078;2023-03-01T22:54:13;4.13;;;3.45;;
30309;SDS011;17115;50.836;12.078;2023-03-01T22:56:58;1.27;;;1.17;;
30309;SDS011;17115;50.836;12.078;2023-03-01T22:59:43;0.10;;;0.10;;
30309;SDS011;17115;50.836;12.078;2023-03-01T23:02:28;4.97;;;4.45;;
30309;SDS011;17115;50.836;12.078;2023-03-01T23:05:12;7.85;;;2.58;;
30309;SDS011;17115;50.836;12.078;2023-03-01T23:07:57;0.35;;;0.35;;
30309;SDS011;17115;50.836;12.078;2023-03-01T23:10:42;2.30;;;2.10;;
